createdAt,value
2019-02-28T00:00:58.974Z,27.07
2019-02-28T00:06:22.593Z,28.67
2019-02-28T00:11:47.332Z,30.10
2019-02-28T00:17:10.857Z,31.93
2019-02-28T00:22:34.722Z,31.80
2019-02-28T00:27:59.106Z,30.57
2019-02-28T00:33:23.780Z,26.77
2019-02-28T00:38:47.392Z,37.60
2019-02-28T00:44:11.106Z,27.93
2019-02-28T00:49:35.780Z,30.50
2019-02-28T00:55:00.979Z,30.07
2019-02-28T01:00:25.457Z,29.97
2019-02-28T01:05:50.594Z,27.20
2019-02-28T01:11:14.294Z,35.93
2019-02-28T01:16:38.245Z,25.10
2019-02-28T01:22:02.124Z,27.07
2019-02-28T01:27:26.769Z,27.97
2019-02-28T01:32:51.173Z,26.20
2019-02-28T01:38:16.704Z,27.10
2019-02-28T01:43:40.706Z,31.93
2019-02-28T01:49:04.696Z,26.97
2019-02-28T01:54:29.692Z,25.63
2019-02-28T01:59:53.678Z,26.70
2019-02-28T02:05:18.477Z,26.13
2019-02-28T02:10:42.123Z,27.67
2019-02-28T02:16:06.597Z,25.37
2019-02-28T02:21:34.899Z,24.97
2019-02-28T02:26:56.960Z,24.43
2019-02-28T02:32:21.872Z,20.77
2019-02-28T02:37:46.594Z,21.60
2019-02-28T02:43:10.600Z,22.47
2019-02-28T02:48:34.213Z,21.37
2019-02-28T02:53:59.024Z,23.23
2019-02-28T02:59:23.771Z,21.30
2019-02-28T03:04:48.263Z,21.73
2019-02-28T03:10:17.523Z,23.17
2019-02-28T03:15:38.264Z,21.80
2019-02-28T03:21:02.065Z,20.93
2019-02-28T03:26:26.701Z,25.00
2019-02-28T03:31:56.440Z,20.60
2019-02-28T03:37:16.768Z,27.73
2019-02-28T03:42:40.748Z,21.53
2019-02-28T03:48:04.825Z,22.97
2019-02-28T03:53:28.474Z,20.10
2019-02-28T03:58:52.592Z,22.47
2019-02-28T04:04:17.370Z,26.83
2019-02-28T04:09:44.313Z,24.43
2019-02-28T04:15:10.221Z,31.37
2019-02-28T04:20:37.391Z,25.27
2019-02-28T04:25:59.283Z,27.53
2019-02-28T04:31:24.337Z,29.47
2019-02-28T04:36:47.861Z,27.50
2019-02-28T04:42:12.259Z,28.93
2019-02-28T04:47:37.310Z,31.53
2019-02-28T04:53:02.151Z,29.97
2019-02-28T04:58:26.537Z,34.33
2019-02-28T05:03:52.684Z,40.93
2019-02-28T05:09:16.773Z,36.97
2019-02-28T05:14:41.502Z,32.00
2019-02-28T05:20:07.326Z,39.27
2019-02-28T05:25:31.282Z,37.70
2019-02-28T05:30:55.068Z,39.60
2019-02-28T05:36:19.786Z,40.60
2019-02-28T05:41:49.116Z,37.30
2019-02-28T05:47:11.698Z,38.53
2019-02-28T05:52:35.296Z,40.20
2019-02-28T05:57:59.724Z,36.97
2019-02-28T06:03:24.825Z,40.30
2019-02-28T06:08:49.633Z,43.47
2019-02-28T06:14:14.245Z,41.60
2019-02-28T06:19:40.181Z,40.67
2019-02-28T06:25:03.823Z,47.73
2019-02-28T06:30:27.963Z,44.40
2019-02-28T06:35:54.454Z,43.60
2019-02-28T06:41:19.543Z,48.53
2019-02-28T06:46:43.991Z,50.80
2019-02-28T06:52:08.631Z,43.97
2019-02-28T06:57:33.253Z,56.77
2019-02-28T07:02:57.879Z,45.97
2019-02-28T07:08:24.937Z,48.93
2019-02-28T07:13:49.133Z,63.70
2019-02-28T07:19:13.379Z,51.00
2019-02-28T07:24:38.264Z,56.07
2019-02-28T07:30:01.973Z,58.43
2019-02-28T07:35:26.411Z,61.40
2019-02-28T07:40:51.291Z,51.50
2019-02-28T07:46:15.588Z,58.73
2019-02-28T07:51:40.814Z,58.20
2019-02-28T07:57:07.832Z,58.77
2019-02-28T08:02:32.387Z,63.73
2019-02-28T08:07:58.379Z,59.13
2019-02-28T08:13:22.052Z,62.00
2019-02-28T08:18:46.821Z,77.17
2019-02-28T08:24:11.833Z,65.80
2019-02-28T08:29:35.698Z,63.83
2019-02-28T08:34:59.667Z,72.23
2019-02-28T08:40:26.651Z,77.20
2019-02-28T08:45:51.894Z,72.63
2019-02-28T08:51:16.048Z,74.83
2019-02-28T08:56:39.719Z,66.20
2019-02-28T09:02:04.544Z,77.23
2019-02-28T09:07:29.303Z,72.20
2019-02-28T09:12:53.352Z,77.97
2019-02-28T09:18:17.793Z,80.07
2019-02-28T09:23:42.448Z,92.43
2019-02-28T09:29:06.303Z,82.90
2019-02-28T09:34:31.614Z,72.60
2019-02-28T09:39:56.460Z,79.40
2019-02-28T09:45:20.693Z,80.63
2019-02-28T09:50:44.525Z,77.20
2019-02-28T09:56:10.247Z,72.23
2019-02-28T10:01:35.139Z,80.10
2019-02-28T10:06:58.796Z,69.30
2019-02-28T10:12:23.349Z,67.43
2019-02-28T10:17:48.076Z,79.62
2019-02-28T10:23:13.342Z,71.80
2019-02-28T10:28:38.132Z,69.92
2019-02-28T10:34:02.683Z,67.12
2019-02-28T10:39:26.582Z,69.35
2019-02-28T10:44:51.017Z,68.22
2019-02-28T10:50:17.485Z,65.78
2019-02-28T10:55:41.350Z,65.57
2019-02-28T11:01:08.977Z,67.53
2019-02-28T11:06:38.791Z,66.05
2019-02-28T11:12:02.760Z,67.67
2019-02-28T11:17:27.124Z,62.13
2019-02-28T11:22:51.557Z,61.05
2019-02-28T11:28:16.349Z,64.75
2019-02-28T11:33:41.628Z,68.80
2019-02-28T11:39:07.056Z,65.83
2019-02-28T11:44:32.025Z,67.75
2019-02-28T11:49:56.762Z,69.75
2019-02-28T11:55:21.435Z,69.42
2019-02-28T12:00:46.188Z,70.52
2019-02-28T12:06:11.127Z,62.10
2019-02-28T12:11:36.528Z,71.00
2019-02-28T12:17:00.366Z,66.42
2019-02-28T12:22:25.143Z,63.13
2019-02-28T12:27:48.977Z,69.62
2019-02-28T12:33:15.371Z,68.55
2019-02-28T12:38:39.346Z,59.60
2019-02-28T12:44:03.224Z,60.90
2019-02-28T12:49:27.703Z,78.17
2019-02-28T12:54:51.846Z,63.45
2019-02-28T13:00:19.817Z,62.90
2019-02-28T13:05:43.141Z,65.30
2019-02-28T13:11:08.281Z,63.50
2019-02-28T13:16:33.080Z,58.48
2019-02-28T13:21:57.220Z,62.10
2019-02-28T13:27:21.767Z,64.42
2019-02-28T13:32:46.587Z,63.35
2019-02-28T13:38:17.684Z,66.53
2019-02-28T13:43:37.404Z,58.48
2019-02-28T13:49:01.832Z,65.17
2019-02-28T13:54:26.947Z,68.47
2019-02-28T13:59:52.772Z,68.97
2019-02-28T14:05:17.670Z,69.20
2019-02-28T14:10:41.976Z,77.50
2019-02-28T14:16:05.975Z,74.13
2019-02-28T14:21:29.923Z,64.30
2019-02-28T14:26:54.623Z,69.50
2019-02-28T14:32:19.536Z,76.20
2019-02-28T14:37:44.265Z,77.20
2019-02-28T14:43:08.945Z,72.53
2019-02-28T14:48:36.673Z,74.00
2019-02-28T14:53:59.983Z,72.60
2019-02-28T14:59:24.351Z,76.70
2019-02-28T15:04:48.785Z,67.03
2019-02-28T15:10:15.107Z,71.97
2019-02-28T15:15:39.129Z,75.40
2019-02-28T15:21:04.442Z,65.93
2019-02-28T15:26:32.161Z,60.70
2019-02-28T15:31:56.819Z,73.10
2019-02-28T15:37:20.908Z,74.37
2019-02-28T15:42:44.812Z,71.13
2019-02-28T15:48:09.245Z,74.17
2019-02-28T15:53:33.425Z,74.33
2019-02-28T15:58:57.955Z,75.60
2019-02-28T16:04:23.549Z,70.73
2019-02-28T16:09:48.053Z,77.17
2019-02-28T16:15:13.310Z,75.90
2019-02-28T16:20:38.383Z,77.53
2019-02-28T16:26:01.988Z,71.90
2019-02-28T16:31:26.229Z,76.13
2019-02-28T16:36:50.987Z,91.13
2019-02-28T16:42:17.461Z,88.53
2019-02-28T16:47:42.313Z,86.67
2019-02-28T16:53:07.667Z,86.93
2019-02-28T16:58:58.112Z,95.37
2019-02-28T17:04:31.499Z,99.87
2019-02-28T17:16:42.154Z,94.83
2019-02-28T17:22:06.463Z,88.70
2019-02-28T17:27:38.697Z,106.93
2019-02-28T17:33:01.197Z,105.13
2019-02-28T17:38:26.519Z,114.33
2019-02-28T17:44:11.561Z,116.77
2019-02-28T17:50:32.061Z,122.67
2019-02-28T17:56:40.825Z,116.53
2019-02-28T18:02:29.183Z,104.67
2019-02-28T18:08:07.156Z,111.30
2019-02-28T18:13:42.192Z,110.37
2019-02-28T18:19:33.726Z,108.43
2019-02-28T18:25:32.533Z,110.03
2019-02-28T18:31:14.283Z,104.57
2019-02-28T18:36:40.248Z,103.57
2019-02-28T18:42:04.388Z,113.07
2019-02-28T18:47:28.283Z,119.97
2019-02-28T18:52:52.124Z,111.17
2019-02-28T18:58:17.025Z,104.30
2019-02-28T19:03:41.451Z,134.23
2019-02-28T19:09:19.803Z,111.30
2019-02-28T19:14:44.025Z,106.67
2019-02-28T19:20:15.905Z,113.13
2019-02-28T19:25:39.502Z,119.63
2019-02-28T19:31:04.461Z,118.30
2019-02-28T19:36:28.744Z,125.70
2019-02-28T19:41:52.444Z,135.20
2019-02-28T19:47:17.250Z,125.10
2019-02-28T19:52:41.961Z,119.13
2019-02-28T19:58:06.398Z,126.33
2019-02-28T20:03:31.105Z,119.93
2019-02-28T20:08:55.299Z,133.03
2019-02-28T20:14:19.288Z,123.10
2019-02-28T20:19:44.067Z,120.27
2019-02-28T20:25:10.260Z,130.00
2019-02-28T20:30:36.331Z,123.93
2019-02-28T20:36:00.067Z,121.07
2019-02-28T20:41:25.080Z,126.23
2019-02-28T20:46:49.216Z,138.27
2019-02-28T20:52:13.655Z,123.10
2019-02-28T20:57:37.416Z,129.70
2019-02-28T21:03:01.990Z,128.67
2019-02-28T21:08:26.214Z,117.70
2019-02-28T21:13:50.117Z,118.67
2019-02-28T21:19:14.816Z,124.87
2019-02-28T21:24:39.406Z,114.77
2019-02-28T21:30:04.803Z,119.87
2019-02-28T21:35:30.609Z,128.80
2019-02-28T21:40:54.683Z,105.77
2019-02-28T21:46:19.514Z,110.57
2019-02-28T21:51:43.810Z,122.23
2019-02-28T21:57:07.388Z,115.57
2019-02-28T22:02:32.107Z,121.33
2019-02-28T22:07:56.474Z,108.43
2019-02-28T22:13:21.054Z,114.47
2019-02-28T22:18:45.966Z,108.53
2019-02-28T22:24:10.672Z,115.13
2019-02-28T22:29:35.411Z,116.50
2019-02-28T22:35:11.904Z,115.13
2019-02-28T22:40:36.632Z,104.20
2019-02-28T22:46:01.075Z,108.73
2019-02-28T22:51:24.850Z,100.63
2019-02-28T22:56:49.250Z,104.77
2019-02-28T23:02:13.200Z,98.47
2019-02-28T23:07:37.064Z,104.07
2019-02-28T23:13:00.844Z,114.73
2019-02-28T23:18:24.856Z,98.63
2019-02-28T23:23:49.378Z,94.53
2019-02-28T23:29:17.731Z,93.77
2019-02-28T23:34:47.874Z,102.03
2019-02-28T23:40:11.622Z,99.80
2019-02-28T23:45:36.076Z,91.13
2019-02-28T23:51:00.045Z,90.60
2019-02-28T23:56:24.672Z,92.50
